sensor_id;sensor_type;location;lat;lon;timestamp;temperature;humidity
78516;SHT31;67815;51.990;5.688;2023-03-23T00:01:31;13.7;74.6
78516;SHT31;67815;51.990;5.688;2023-03-23T00:04:04;13.7;74.7
78516;SHT31;67815;51.990;5.688;2023-03-23T00:06:34;13.7;74.4
78516;SHT31;67815;51.990;5.688;2023-03-23T00:09:04;13.7;74.1
78516;SHT31;67815;51.990;5.688;2023-03-23T00:11:34;13.7;74.5
78516;SHT31;67815;51.990;5.688;2023-03-23T00:14:22;13.7;74.4
78516;SHT31;67815;51.990;5.688;2023-03-23T00:16:54;13.7;74.4
78516;SHT31;67815;51.990;5.688;2023-03-23T00:19:23;13.7;74.4
78516;SHT31;67815;51.990;5.688;2023-03-23T00:21:53;13.7;74.1
78516;SHT31;67815;51.990;5.688;2023-03-23T00:24:22;13.7;74.3
78516;SHT31;67815;51.990;5.688;2023-03-23T00:26:53;13.7;74.2
78516;SHT31;67815;51.990;5.688;2023-03-23T00:29:28;13.7;74.2
78516;SHT31;67815;51.990;5.688;2023-03-23T00:31:59;13.7;74.3
78516;SHT31;67815;51.990;5.688;2023-03-23T00:34:29;13.7;74.4
78516;SHT31;67815;51.990;5.688;2023-03-23T00:37:01;13.7;74.4
78516;SHT31;67815;51.990;5.688;2023-03-23T00:39:32;13.7;74.2
78516;SHT31;67815;51.990;5.688;2023-03-23T00:42:05;13.7;74.6
78516;SHT31;67815;51.990;5.688;2023-03-23T00:44:36;13.7;74.3
78516;SHT31;67815;51.990;5.688;2023-03-23T00:47:07;13.7;74.1
78516;SHT31;67815;51.990;5.688;2023-03-23T00:49:38;13.8;74.3
78516;SHT31;67815;51.990;5.688;2023-03-23T00:52:09;13.8;74.6
78516;SHT31;67815;51.990;5.688;2023-03-23T00:57:45;13.7;74.2
78516;SHT31;67815;51.990;5.688;2023-03-23T01:00:18;13.7;74.6
78516;SHT31;67815;51.990;5.688;2023-03-23T01:02:49;13.7;74.2
78516;SHT31;67815;51.990;5.688;2023-03-23T01:08:42;13.7;74.6
78516;SHT31;67815;51.990;5.688;2023-03-23T01:11:16;13.7;74.6
78516;SHT31;67815;51.990;5.688;2023-03-23T01:13:45;13.7;74.6
78516;SHT31;67815;51.990;5.688;2023-03-23T01:16:15;13.6;74.3
78516;SHT31;67815;51.990;5.688;2023-03-23T01:18:47;13.6;74.2
78516;SHT31;67815;51.990;5.688;2023-03-23T01:21:19;13.6;74.4
78516;SHT31;67815;51.990;5.688;2023-03-23T01:23:49;13.6;74.0
78516;SHT31;67815;51.990;5.688;2023-03-23T01:26:21;13.6;74.0
78516;SHT31;67815;51.990;5.688;2023-03-23T01:28:54;13.6;73.9
78516;SHT31;67815;51.990;5.688;2023-03-23T01:31:25;13.6;74.2
78516;SHT31;67815;51.990;5.688;2023-03-23T01:33:55;13.6;73.7
78516;SHT31;67815;51.990;5.688;2023-03-23T01:36:26;13.6;73.7
78516;SHT31;67815;51.990;5.688;2023-03-23T01:39:01;13.6;73.8
78516;SHT31;67815;51.990;5.688;2023-03-23T01:41:32;13.6;73.6
78516;SHT31;67815;51.990;5.688;2023-03-23T01:44:06;13.6;74.1
78516;SHT31;67815;51.990;5.688;2023-03-23T01:46:36;13.6;73.8
78516;SHT31;67815;51.990;5.688;2023-03-23T01:49:10;13.6;73.7
78516;SHT31;67815;51.990;5.688;2023-03-23T01:51:45;13.6;74.1
78516;SHT31;67815;51.990;5.688;2023-03-23T01:54:19;13.6;73.9
78516;SHT31;67815;51.990;5.688;2023-03-23T01:56:53;13.6;74.0
78516;SHT31;67815;51.990;5.688;2023-03-23T01:59:26;13.6;73.8
78516;SHT31;67815;51.990;5.688;2023-03-23T02:01:59;13.6;73.6
78516;SHT31;67815;51.990;5.688;2023-03-23T02:04:31;13.6;73.6
78516;SHT31;67815;51.990;5.688;2023-03-23T02:07:04;13.6;73.6
78516;SHT31;67815;51.990;5.688;2023-03-23T02:09:35;13.6;73.0
78516;SHT31;67815;51.990;5.688;2023-03-23T02:12:06;13.6;73.3
78516;SHT31;67815;51.990;5.688;2023-03-23T02:14:35;13.6;73.3
78516;SHT31;67815;51.990;5.688;2023-03-23T02:17:10;13.6;73.6
78516;SHT31;67815;51.990;5.688;2023-03-23T02:20:00;13.6;73.7
78516;SHT31;67815;51.990;5.688;2023-03-23T02:22:51;13.6;73.8
78516;SHT31;67815;51.990;5.688;2023-03-23T02:25:46;13.7;73.7
78516;SHT31;67815;51.990;5.688;2023-03-23T02:28:34;13.7;73.6
78516;SHT31;67815;51.990;5.688;2023-03-23T02:31:20;13.7;73.7
78516;SHT31;67815;51.990;5.688;2023-03-23T02:33:56;13.7;73.8
78516;SHT31;67815;51.990;5.688;2023-03-23T02:36:32;13.7;73.8
78516;SHT31;67815;51.990;5.688;2023-03-23T02:39:08;13.7;73.8
78516;SHT31;67815;51.990;5.688;2023-03-23T02:41:42;13.7;73.8
78516;SHT31;67815;51.990;5.688;2023-03-23T02:44:15;13.7;73.7
78516;SHT31;67815;51.990;5.688;2023-03-23T02:46:46;13.7;73.7
78516;SHT31;67815;51.990;5.688;2023-03-23T02:49:18;13.7;73.8
78516;SHT31;67815;51.990;5.688;2023-03-23T02:51:53;13.8;73.8
78516;SHT31;67815;51.990;5.688;2023-03-23T02:54:24;13.8;73.6
78516;SHT31;67815;51.990;5.688;2023-03-23T02:57:14;13.8;73.7
78516;SHT31;67815;51.990;5.688;2023-03-23T02:59:47;13.8;73.7
78516;SHT31;67815;51.990;5.688;2023-03-23T03:05:42;13.8;73.6
78516;SHT31;67815;51.990;5.688;2023-03-23T03:08:25;13.9;73.4
78516;SHT31;67815;51.990;5.688;2023-03-23T03:11:00;13.9;73.0
78516;SHT31;67815;51.990;5.688;2023-03-23T03:13:39;13.9;73.3
78516;SHT31;67815;51.990;5.688;2023-03-23T03:16:18;13.9;73.1
78516;SHT31;67815;51.990;5.688;2023-03-23T03:18:55;13.9;73.4
78516;SHT31;67815;51.990;5.688;2023-03-23T03:21:30;13.9;72.6
78516;SHT31;67815;51.990;5.688;2023-03-23T03:24:02;13.9;72.7
78516;SHT31;67815;51.990;5.688;2023-03-23T03:26:35;13.9;72.8
78516;SHT31;67815;51.990;5.688;2023-03-23T03:29:05;13.9;72.7
78516;SHT31;67815;51.990;5.688;2023-03-23T03:31:39;13.9;72.4
78516;SHT31;67815;51.990;5.688;2023-03-23T03:34:13;13.9;72.4
78516;SHT31;67815;51.990;5.688;2023-03-23T03:36:46;13.9;72.3
78516;SHT31;67815;51.990;5.688;2023-03-23T03:39:18;13.9;72.2
78516;SHT31;67815;51.990;5.688;2023-03-23T03:41:49;13.9;71.6
78516;SHT31;67815;51.990;5.688;2023-03-23T03:44:18;13.9;72.2
78516;SHT31;67815;51.990;5.688;2023-03-23T03:46:51;13.9;71.9
78516;SHT31;67815;51.990;5.688;2023-03-23T03:49:20;13.9;71.9
78516;SHT31;67815;51.990;5.688;2023-03-23T03:54:56;13.9;72.1
78516;SHT31;67815;51.990;5.688;2023-03-23T03:57:26;13.9;72.0
78516;SHT31;67815;51.990;5.688;2023-03-23T04:00:14;13.9;71.5
78516;SHT31;67815;51.990;5.688;2023-03-23T04:02:46;13.9;72.3
78516;SHT31;67815;51.990;5.688;2023-03-23T04:05:18;14.0;72.2
78516;SHT31;67815;51.990;5.688;2023-03-23T04:07:48;14.0;72.0
78516;SHT31;67815;51.990;5.688;2023-03-23T04:10:20;14.0;71.6
78516;SHT31;67815;51.990;5.688;2023-03-23T04:12:53;14.0;71.7
78516;SHT31;67815;51.990;5.688;2023-03-23T04:15:23;14.0;71.7
78516;SHT31;67815;51.990;5.688;2023-03-23T04:17:53;14.0;71.8
78516;SHT31;67815;51.990;5.688;2023-03-23T04:20:24;14.0;71.3
78516;SHT31;67815;51.990;5.688;2023-03-23T04:23:14;14.0;71.5
78516;SHT31;67815;51.990;5.688;2023-03-23T04:25:48;14.0;71.4
78516;SHT31;67815;51.990;5.688;2023-03-23T04:28:19;14.0;71.0
78516;SHT31;67815;51.990;5.688;2023-03-23T04:30:52;14.0;71.2
78516;SHT31;67815;51.990;5.688;2023-03-23T04:36:42;14.0;70.7
78516;SHT31;67815;51.990;5.688;2023-03-23T04:39:13;14.0;71.0
78516;SHT31;67815;51.990;5.688;2023-03-23T04:41:43;14.1;71.0
78516;SHT31;67815;51.990;5.688;2023-03-23T04:44:15;14.1;71.2
78516;SHT31;67815;51.990;5.688;2023-03-23T04:46:48;14.1;70.6
78516;SHT31;67815;51.990;5.688;2023-03-23T04:49:21;14.1;70.6
78516;SHT31;67815;51.990;5.688;2023-03-23T04:51:51;14.1;70.4
78516;SHT31;67815;51.990;5.688;2023-03-23T04:54:20;14.1;69.7
78516;SHT31;67815;51.990;5.688;2023-03-23T04:56:50;14.1;69.2
78516;SHT31;67815;51.990;5.688;2023-03-23T04:59:19;14.1;70.3
78516;SHT31;67815;51.990;5.688;2023-03-23T05:01:54;14.1;69.0
78516;SHT31;67815;51.990;5.688;2023-03-23T05:07:48;14.1;69.8
78516;SHT31;67815;51.990;5.688;2023-03-23T05:10:18;14.1;68.8
78516;SHT31;67815;51.990;5.688;2023-03-23T05:13:14;14.1;69.9
78516;SHT31;67815;51.990;5.688;2023-03-23T05:15:44;14.1;69.7
78516;SHT31;67815;51.990;5.688;2023-03-23T05:18:14;14.1;68.6
78516;SHT31;67815;51.990;5.688;2023-03-23T05:20:46;14.1;69.4
78516;SHT31;67815;51.990;5.688;2023-03-23T05:23:16;14.1;68.1
78516;SHT31;67815;51.990;5.688;2023-03-23T05:25:55;14.1;69.1
78516;SHT31;67815;51.990;5.688;2023-03-23T05:28:28;14.2;68.7
78516;SHT31;67815;51.990;5.688;2023-03-23T05:30:58;14.2;69.4
78516;SHT31;67815;51.990;5.688;2023-03-23T05:33:28;14.2;69.1
78516;SHT31;67815;51.990;5.688;2023-03-23T05:35:58;14.2;68.4
78516;SHT31;67815;51.990;5.688;2023-03-23T05:38:28;14.2;68.9
78516;SHT31;67815;51.990;5.688;2023-03-23T05:40:59;14.2;69.1
78516;SHT31;67815;51.990;5.688;2023-03-23T05:43:29;14.2;69.3
78516;SHT31;67815;51.990;5.688;2023-03-23T05:45:59;14.2;69.0
78516;SHT31;67815;51.990;5.688;2023-03-23T05:48:30;14.2;69.1
78516;SHT31;67815;51.990;5.688;2023-03-23T05:51:00;14.2;69.0
78516;SHT31;67815;51.990;5.688;2023-03-23T05:56:42;14.1;68.7
78516;SHT31;67815;51.990;5.688;2023-03-23T05:59:12;14.1;69.1
78516;SHT31;67815;51.990;5.688;2023-03-23T06:01:41;14.1;69.0
78516;SHT31;67815;51.990;5.688;2023-03-23T06:04:11;14.1;69.3
78516;SHT31;67815;51.990;5.688;2023-03-23T06:06:41;14.1;68.5
78516;SHT31;67815;51.990;5.688;2023-03-23T06:09:11;14.1;68.9
78516;SHT31;67815;51.990;5.688;2023-03-23T06:11:41;14.1;69.0
78516;SHT31;67815;51.990;5.688;2023-03-23T06:14:11;14.1;69.6
78516;SHT31;67815;51.990;5.688;2023-03-23T06:16:41;14.1;68.6
78516;SHT31;67815;51.990;5.688;2023-03-23T06:19:10;14.1;69.4
78516;SHT31;67815;51.990;5.688;2023-03-23T06:21:40;14.1;69.5
78516;SHT31;67815;51.990;5.688;2023-03-23T06:24:10;14.1;69.0
78516;SHT31;67815;51.990;5.688;2023-03-23T06:26:40;14.1;68.9
78516;SHT31;67815;51.990;5.688;2023-03-23T06:29:11;14.1;69.2
78516;SHT31;67815;51.990;5.688;2023-03-23T06:31:43;14.1;68.8
78516;SHT31;67815;51.990;5.688;2023-03-23T06:34:14;14.1;69.4
78516;SHT31;67815;51.990;5.688;2023-03-23T06:36:46;14.1;69.6
78516;SHT31;67815;51.990;5.688;2023-03-23T06:39:16;14.1;69.4
78516;SHT31;67815;51.990;5.688;2023-03-23T06:41:46;14.1;69.2
78516;SHT31;67815;51.990;5.688;2023-03-23T06:44:15;14.2;69.3
78516;SHT31;67815;51.990;5.688;2023-03-23T06:49:50;14.2;69.4
78516;SHT31;67815;51.990;5.688;2023-03-23T06:52:20;14.2;69.4
78516;SHT31;67815;51.990;5.688;2023-03-23T06:54:51;14.2;69.0
78516;SHT31;67815;51.990;5.688;2023-03-23T06:57:21;14.2;69.3
78516;SHT31;67815;51.990;5.688;2023-03-23T06:59:52;14.2;68.1
78516;SHT31;67815;51.990;5.688;2023-03-23T07:02:22;14.2;69.0
78516;SHT31;67815;51.990;5.688;2023-03-23T07:04:52;14.2;69.3
78516;SHT31;67815;51.990;5.688;2023-03-23T07:07:23;14.2;69.8
78516;SHT31;67815;51.990;5.688;2023-03-23T07:09:52;14.3;69.1
78516;SHT31;67815;51.990;5.688;2023-03-23T07:12:22;14.3;69.5
78516;SHT31;67815;51.990;5.688;2023-03-23T07:14:52;14.3;68.5
78516;SHT31;67815;51.990;5.688;2023-03-23T07:17:22;14.3;68.2
78516;SHT31;67815;51.990;5.688;2023-03-23T07:19:52;14.3;68.7
78516;SHT31;67815;51.990;5.688;2023-03-23T07:25:45;14.3;69.1
78516;SHT31;67815;51.990;5.688;2023-03-23T07:28:16;14.4;69.1
78516;SHT31;67815;51.990;5.688;2023-03-23T07:30:46;14.4;69.8
78516;SHT31;67815;51.990;5.688;2023-03-23T07:33:15;14.4;69.5
78516;SHT31;67815;51.990;5.688;2023-03-23T07:35:45;14.4;68.1
78516;SHT31;67815;51.990;5.688;2023-03-23T07:38:15;14.5;67.5
78516;SHT31;67815;51.990;5.688;2023-03-23T07:40:45;14.5;68.9
78516;SHT31;67815;51.990;5.688;2023-03-23T07:43:18;14.5;67.8
78516;SHT31;67815;51.990;5.688;2023-03-23T07:45:48;14.5;68.6
78516;SHT31;67815;51.990;5.688;2023-03-23T07:48:19;14.5;68.8
78516;SHT31;67815;51.990;5.688;2023-03-23T07:50:48;14.5;67.7
78516;SHT31;67815;51.990;5.688;2023-03-23T07:53:18;14.5;68.3
78516;SHT31;67815;51.990;5.688;2023-03-23T07:55:48;14.5;68.3
78516;SHT31;67815;51.990;5.688;2023-03-23T07:58:19;14.5;68.4
78516;SHT31;67815;51.990;5.688;2023-03-23T08:00:48;14.5;68.9
78516;SHT31;67815;51.990;5.688;2023-03-23T08:06:41;14.5;69.6
78516;SHT31;67815;51.990;5.688;2023-03-23T08:09:28;14.5;69.3
78516;SHT31;67815;51.990;5.688;2023-03-23T08:12:16;14.5;69.5
78516;SHT31;67815;51.990;5.688;2023-03-23T08:14:46;14.4;69.7
78516;SHT31;67815;51.990;5.688;2023-03-23T08:17:15;14.4;70.7
78516;SHT31;67815;51.990;5.688;2023-03-23T08:19:45;14.4;70.8
78516;SHT31;67815;51.990;5.688;2023-03-23T08:22:16;14.4;71.0
78516;SHT31;67815;51.990;5.688;2023-03-23T08:24:46;14.4;70.7
78516;SHT31;67815;51.990;5.688;2023-03-23T08:30:38;14.4;72.0
78516;SHT31;67815;51.990;5.688;2023-03-23T08:33:09;14.4;72.1
78516;SHT31;67815;51.990;5.688;2023-03-23T08:35:39;14.3;71.8
78516;SHT31;67815;51.990;5.688;2023-03-23T08:38:11;14.3;71.6
78516;SHT31;67815;51.990;5.688;2023-03-23T08:40:41;14.3;72.2
78516;SHT31;67815;51.990;5.688;2023-03-23T08:43:13;14.4;71.9
78516;SHT31;67815;51.990;5.688;2023-03-23T08:45:44;14.4;71.4
78516;SHT31;67815;51.990;5.688;2023-03-23T08:48:15;14.4;70.2
78516;SHT31;67815;51.990;5.688;2023-03-23T08:50:47;14.4;70.8
78516;SHT31;67815;51.990;5.688;2023-03-23T08:53:17;14.4;71.6
78516;SHT31;67815;51.990;5.688;2023-03-23T08:55:48;14.4;71.7
78516;SHT31;67815;51.990;5.688;2023-03-23T08:58:18;14.4;71.2
78516;SHT31;67815;51.990;5.688;2023-03-23T09:00:47;14.4;70.2
78516;SHT31;67815;51.990;5.688;2023-03-23T09:03:17;14.4;70.0
78516;SHT31;67815;51.990;5.688;2023-03-23T09:08:51;14.5;68.4
78516;SHT31;67815;51.990;5.688;2023-03-23T09:11:20;14.5;69.2
78516;SHT31;67815;51.990;5.688;2023-03-23T09:13:50;14.5;70.0
78516;SHT31;67815;51.990;5.688;2023-03-23T09:19:41;14.5;69.2
78516;SHT31;67815;51.990;5.688;2023-03-23T09:22:13;14.6;68.4
78516;SHT31;67815;51.990;5.688;2023-03-23T09:24:47;14.6;66.8
78516;SHT31;67815;51.990;5.688;2023-03-23T09:27:19;14.6;67.5
78516;SHT31;67815;51.990;5.688;2023-03-23T09:29:49;14.6;67.4
78516;SHT31;67815;51.990;5.688;2023-03-23T09:32:20;14.7;67.6
78516;SHT31;67815;51.990;5.688;2023-03-23T09:34:50;14.7;67.9
78516;SHT31;67815;51.990;5.688;2023-03-23T09:37:22;14.7;67.9
78516;SHT31;67815;51.990;5.688;2023-03-23T09:39:52;14.7;66.9
78516;SHT31;67815;51.990;5.688;2023-03-23T09:42:38;14.7;66.6
78516;SHT31;67815;51.990;5.688;2023-03-23T09:45:17;14.8;66.8
78516;SHT31;67815;51.990;5.688;2023-03-23T09:48:03;14.8;67.0
78516;SHT31;67815;51.990;5.688;2023-03-23T09:50:38;14.8;66.2
78516;SHT31;67815;51.990;5.688;2023-03-23T09:53:18;14.8;66.1
78516;SHT31;67815;51.990;5.688;2023-03-23T09:55:49;14.8;66.5
78516;SHT31;67815;51.990;5.688;2023-03-23T09:58:24;14.9;66.5
78516;SHT31;67815;51.990;5.688;2023-03-23T10:01:00;14.9;66.0
78516;SHT31;67815;51.990;5.688;2023-03-23T10:06:57;15.0;64.6
78516;SHT31;67815;51.990;5.688;2023-03-23T10:09:29;15.0;64.1
78516;SHT31;67815;51.990;5.688;2023-03-23T10:12:06;15.0;62.8
78516;SHT31;67815;51.990;5.688;2023-03-23T10:15:27;15.1;62.6
78516;SHT31;67815;51.990;5.688;2023-03-23T10:18:01;15.1;63.2
78516;SHT31;67815;51.990;5.688;2023-03-23T10:20:39;15.1;63.7
78516;SHT31;67815;51.990;5.688;2023-03-23T10:23:24;15.1;63.7
78516;SHT31;67815;51.990;5.688;2023-03-23T10:25:55;15.1;62.8
78516;SHT31;67815;51.990;5.688;2023-03-23T10:28:37;15.1;63.3
78516;SHT31;67815;51.990;5.688;2023-03-23T10:31:11;15.2;62.3
78516;SHT31;67815;51.990;5.688;2023-03-23T10:33:46;15.2;62.0
78516;SHT31;67815;51.990;5.688;2023-03-23T10:36:21;15.2;62.0
78516;SHT31;67815;51.990;5.688;2023-03-23T10:38:59;15.2;63.3
78516;SHT31;67815;51.990;5.688;2023-03-23T10:41:31;15.3;62.5
78516;SHT31;67815;51.990;5.688;2023-03-23T10:44:04;15.3;63.2
78516;SHT31;67815;51.990;5.688;2023-03-23T10:46:43;15.3;61.0
78516;SHT31;67815;51.990;5.688;2023-03-23T10:49:21;15.4;61.8
78516;SHT31;67815;51.990;5.688;2023-03-23T10:52:00;15.4;61.4
78516;SHT31;67815;51.990;5.688;2023-03-23T10:58:05;15.5;61.9
78516;SHT31;67815;51.990;5.688;2023-03-23T11:00:43;15.5;61.3
78516;SHT31;67815;51.990;5.688;2023-03-23T11:09:53;15.8;58.0
78516;SHT31;67815;51.990;5.688;2023-03-23T11:15:45;15.9;57.3
78516;SHT31;67815;51.990;5.688;2023-03-23T11:18:22;15.9;56.8
78516;SHT31;67815;51.990;5.688;2023-03-23T11:20:56;15.9;55.8
78516;SHT31;67815;51.990;5.688;2023-03-23T11:23:28;16.0;58.3
78516;SHT31;67815;51.990;5.688;2023-03-23T11:26:10;16.0;57.5
78516;SHT31;67815;51.990;5.688;2023-03-23T11:28:47;16.0;57.7
78516;SHT31;67815;51.990;5.688;2023-03-23T11:31:22;16.0;60.2
78516;SHT31;67815;51.990;5.688;2023-03-23T11:33:57;16.0;59.2
78516;SHT31;67815;51.990;5.688;2023-03-23T11:36:34;16.0;58.6
78516;SHT31;67815;51.990;5.688;2023-03-23T11:39:24;16.0;58.6
78516;SHT31;67815;51.990;5.688;2023-03-23T11:41:57;16.0;58.1
78516;SHT31;67815;51.990;5.688;2023-03-23T11:44:39;16.0;59.4
78516;SHT31;67815;51.990;5.688;2023-03-23T11:49:58;16.0;58.3
78516;SHT31;67815;51.990;5.688;2023-03-23T11:52:37;16.0;59.6
78516;SHT31;67815;51.990;5.688;2023-03-23T11:55:13;16.0;58.5
78516;SHT31;67815;51.990;5.688;2023-03-23T12:00:58;16.1;56.0
78516;SHT31;67815;51.990;5.688;2023-03-23T12:03:50;16.1;56.7
78516;SHT31;67815;51.990;5.688;2023-03-23T12:06:32;16.1;58.6
78516;SHT31;67815;51.990;5.688;2023-03-23T12:09:28;16.1;58.0
78516;SHT31;67815;51.990;5.688;2023-03-23T12:12:09;16.2;59.8
78516;SHT31;67815;51.990;5.688;2023-03-23T12:14:47;16.2;57.5
78516;SHT31;67815;51.990;5.688;2023-03-23T12:17:25;16.3;56.5
78516;SHT31;67815;51.990;5.688;2023-03-23T12:20:28;16.4;58.0
78516;SHT31;67815;51.990;5.688;2023-03-23T12:23:15;16.4;59.6
78516;SHT31;67815;51.990;5.688;2023-03-23T12:26:00;16.4;60.2
78516;SHT31;67815;51.990;5.688;2023-03-23T12:28:45;16.4;61.4
78516;SHT31;67815;51.990;5.688;2023-03-23T12:31:25;16.3;61.0
78516;SHT31;67815;51.990;5.688;2023-03-23T12:34:22;16.1;62.0
78516;SHT31;67815;51.990;5.688;2023-03-23T12:37:04;16.0;62.9
78516;SHT31;67815;51.990;5.688;2023-03-23T12:42:51;15.7;64.9
78516;SHT31;67815;51.990;5.688;2023-03-23T12:45:40;15.5;65.5
78516;SHT31;67815;51.990;5.688;2023-03-23T12:48:07;15.4;66.3
78516;SHT31;67815;51.990;5.688;2023-03-23T12:50:43;15.3;67.4
78516;SHT31;67815;51.990;5.688;2023-03-23T12:53:19;15.3;68.4
78516;SHT31;67815;51.990;5.688;2023-03-23T12:56:04;15.2;68.9
78516;SHT31;67815;51.990;5.688;2023-03-23T12:58:42;15.2;70.1
78516;SHT31;67815;51.990;5.688;2023-03-23T13:01:18;15.2;71.4
78516;SHT31;67815;51.990;5.688;2023-03-23T13:06:58;15.2;70.3
78516;SHT31;67815;51.990;5.688;2023-03-23T13:09:42;15.2;72.4
78516;SHT31;67815;51.990;5.688;2023-03-23T13:12:16;15.2;70.1
78516;SHT31;67815;51.990;5.688;2023-03-23T13:14:55;15.3;70.6
78516;SHT31;67815;51.990;5.688;2023-03-23T13:17:38;15.3;70.1
78516;SHT31;67815;51.990;5.688;2023-03-23T13:20:32;15.3;69.4
78516;SHT31;67815;51.990;5.688;2023-03-23T13:23:09;15.4;71.9
78516;SHT31;67815;51.990;5.688;2023-03-23T13:25:47;15.4;69.6
78516;SHT31;67815;51.990;5.688;2023-03-23T13:28:20;15.4;71.8
78516;SHT31;67815;51.990;5.688;2023-03-23T13:30:59;15.5;71.8
78516;SHT31;67815;51.990;5.688;2023-03-23T13:36:43;15.6;69.2
78516;SHT31;67815;51.990;5.688;2023-03-23T13:39:20;15.6;70.1
78516;SHT31;67815;51.990;5.688;2023-03-23T13:42:03;15.7;69.6
78516;SHT31;67815;51.990;5.688;2023-03-23T13:44:54;15.7;67.1
78516;SHT31;67815;51.990;5.688;2023-03-23T13:47:27;15.8;67.6
78516;SHT31;67815;51.990;5.688;2023-03-23T13:50:01;15.8;68.0
78516;SHT31;67815;51.990;5.688;2023-03-23T13:52:46;15.8;68.2
78516;SHT31;67815;51.990;5.688;2023-03-23T13:55:42;15.8;68.3
78516;SHT31;67815;51.990;5.688;2023-03-23T13:58:25;15.9;68.1
78516;SHT31;67815;51.990;5.688;2023-03-23T14:01:14;15.9;68.6
78516;SHT31;67815;51.990;5.688;2023-03-23T14:03:49;15.9;67.3
78516;SHT31;67815;51.990;5.688;2023-03-23T14:06:22;15.9;67.0
78516;SHT31;67815;51.990;5.688;2023-03-23T14:09:15;15.9;68.6
78516;SHT31;67815;51.990;5.688;2023-03-23T14:11:49;15.9;68.9
78516;SHT31;67815;51.990;5.688;2023-03-23T14:14:25;15.9;68.5
78516;SHT31;67815;51.990;5.688;2023-03-23T14:17:10;15.9;69.8
78516;SHT31;67815;51.990;5.688;2023-03-23T14:19:47;15.9;68.9
78516;SHT31;67815;51.990;5.688;2023-03-23T14:22:22;15.9;70.5
78516;SHT31;67815;51.990;5.688;2023-03-23T14:25:01;15.9;70.1
78516;SHT31;67815;51.990;5.688;2023-03-23T14:27:36;15.9;70.2
78516;SHT31;67815;51.990;5.688;2023-03-23T14:30:09;15.9;67.7
78516;SHT31;67815;51.990;5.688;2023-03-23T14:32:42;15.9;63.9
78516;SHT31;67815;51.990;5.688;2023-03-23T14:35:22;15.9;67.9
78516;SHT31;67815;51.990;5.688;2023-03-23T14:37:53;15.9;65.9
78516;SHT31;67815;51.990;5.688;2023-03-23T14:40:26;15.9;64.2
78516;SHT31;67815;51.990;5.688;2023-03-23T14:42:57;15.9;63.9
78516;SHT31;67815;51.990;5.688;2023-03-23T14:45:31;16.0;66.2
78516;SHT31;67815;51.990;5.688;2023-03-23T14:48:20;16.0;63.4
78516;SHT31;67815;51.990;5.688;2023-03-23T14:50:52;16.1;64.0
78516;SHT31;67815;51.990;5.688;2023-03-23T14:56:49;16.2;64.6
78516;SHT31;67815;51.990;5.688;2023-03-23T14:59:20;16.3;61.3
78516;SHT31;67815;51.990;5.688;2023-03-23T15:01:51;16.3;64.0
78516;SHT31;67815;51.990;5.688;2023-03-23T15:04:24;16.3;60.7
78516;SHT31;67815;51.990;5.688;2023-03-23T15:06:58;16.4;60.8
78516;SHT31;67815;51.990;5.688;2023-03-23T15:09:32;16.4;59.1
78516;SHT31;67815;51.990;5.688;2023-03-23T15:12:04;16.4;61.8
78516;SHT31;67815;51.990;5.688;2023-03-23T15:14:44;16.4;61.5
78516;SHT31;67815;51.990;5.688;2023-03-23T15:20:47;16.5;61.0
78516;SHT31;67815;51.990;5.688;2023-03-23T15:26:44;16.6;64.2
78516;SHT31;67815;51.990;5.688;2023-03-23T15:29:17;16.7;63.8
78516;SHT31;67815;51.990;5.688;2023-03-23T15:31:50;16.7;59.9
78516;SHT31;67815;51.990;5.688;2023-03-23T15:34:25;16.7;59.7
78516;SHT31;67815;51.990;5.688;2023-03-23T15:37:00;16.8;60.1
78516;SHT31;67815;51.990;5.688;2023-03-23T15:39:32;16.8;61.9
78516;SHT31;67815;51.990;5.688;2023-03-23T15:42:04;16.8;62.6
78516;SHT31;67815;51.990;5.688;2023-03-23T15:44:35;16.8;62.5
78516;SHT31;67815;51.990;5.688;2023-03-23T15:47:18;16.8;60.8
78516;SHT31;67815;51.990;5.688;2023-03-23T15:50:04;16.8;62.3
78516;SHT31;67815;51.990;5.688;2023-03-23T15:52:34;16.8;62.5
78516;SHT31;67815;51.990;5.688;2023-03-23T15:55:23;16.9;61.3
78516;SHT31;67815;51.990;5.688;2023-03-23T15:57:55;16.9;63.1
78516;SHT31;67815;51.990;5.688;2023-03-23T16:00:27;16.9;63.6
78516;SHT31;67815;51.990;5.688;2023-03-23T16:03:00;16.9;61.8
78516;SHT31;67815;51.990;5.688;2023-03-23T16:08:42;16.9;60.3
78516;SHT31;67815;51.990;5.688;2023-03-23T16:11:15;16.9;60.9
78516;SHT31;67815;51.990;5.688;2023-03-23T16:13:45;17.0;61.9
78516;SHT31;67815;51.990;5.688;2023-03-23T16:19:36;16.9;60.9
78516;SHT31;67815;51.990;5.688;2023-03-23T16:22:07;16.9;62.1
78516;SHT31;67815;51.990;5.688;2023-03-23T16:24:37;16.9;59.5
78516;SHT31;67815;51.990;5.688;2023-03-23T16:27:08;16.9;60.1
78516;SHT31;67815;51.990;5.688;2023-03-23T16:29:38;16.9;59.2
78516;SHT31;67815;51.990;5.688;2023-03-23T16:32:08;16.9;60.2
78516;SHT31;67815;51.990;5.688;2023-03-23T16:34:37;16.8;60.5
78516;SHT31;67815;51.990;5.688;2023-03-23T16:37:16;16.8;58.7
78516;SHT31;67815;51.990;5.688;2023-03-23T16:39:45;16.8;60.2
78516;SHT31;67815;51.990;5.688;2023-03-23T16:42:15;16.7;60.4
78516;SHT31;67815;51.990;5.688;2023-03-23T16:44:44;16.7;59.0
78516;SHT31;67815;51.990;5.688;2023-03-23T16:50:38;16.6;60.5
78516;SHT31;67815;51.990;5.688;2023-03-23T16:53:09;16.6;59.7
78516;SHT31;67815;51.990;5.688;2023-03-23T16:55:39;16.5;60.2
78516;SHT31;67815;51.990;5.688;2023-03-23T16:58:15;16.5;60.7
78516;SHT31;67815;51.990;5.688;2023-03-23T17:00:47;16.5;60.6
78516;SHT31;67815;51.990;5.688;2023-03-23T17:09:41;16.4;60.4
78516;SHT31;67815;51.990;5.688;2023-03-23T17:12:11;16.4;60.0
78516;SHT31;67815;51.990;5.688;2023-03-23T17:14:41;16.4;60.3
78516;SHT31;67815;51.990;5.688;2023-03-23T17:17:13;16.4;60.7
78516;SHT31;67815;51.990;5.688;2023-03-23T17:20:19;16.3;60.7
78516;SHT31;67815;51.990;5.688;2023-03-23T17:22:49;16.3;61.2
78516;SHT31;67815;51.990;5.688;2023-03-23T17:25:21;16.3;61.3
78516;SHT31;67815;51.990;5.688;2023-03-23T17:27:50;16.3;61.1
78516;SHT31;67815;51.990;5.688;2023-03-23T17:30:22;16.3;60.9
78516;SHT31;67815;51.990;5.688;2023-03-23T17:32:52;16.3;61.1
78516;SHT31;67815;51.990;5.688;2023-03-23T17:38:44;16.2;60.4
78516;SHT31;67815;51.990;5.688;2023-03-23T17:41:13;16.2;61.3
78516;SHT31;67815;51.990;5.688;2023-03-23T17:43:43;16.1;61.2
78516;SHT31;67815;51.990;5.688;2023-03-23T17:46:13;16.1;61.8
78516;SHT31;67815;51.990;5.688;2023-03-23T17:48:45;16.1;61.0
78516;SHT31;67815;51.990;5.688;2023-03-23T17:51:17;16.1;61.4
78516;SHT31;67815;51.990;5.688;2023-03-23T17:53:47;16.0;61.6
78516;SHT31;67815;51.990;5.688;2023-03-23T17:56:17;16.0;61.8
78516;SHT31;67815;51.990;5.688;2023-03-23T17:59:13;16.0;61.2
78516;SHT31;67815;51.990;5.688;2023-03-23T18:01:43;16.0;61.8
78516;SHT31;67815;51.990;5.688;2023-03-23T18:04:15;16.0;61.8
78516;SHT31;67815;51.990;5.688;2023-03-23T18:06:45;16.0;61.6
78516;SHT31;67815;51.990;5.688;2023-03-23T18:09:15;16.0;61.7
78516;SHT31;67815;51.990;5.688;2023-03-23T18:11:44;15.9;61.8
78516;SHT31;67815;51.990;5.688;2023-03-23T18:14:14;15.9;62.2
78516;SHT31;67815;51.990;5.688;2023-03-23T18:16:44;15.9;62.4
78516;SHT31;67815;51.990;5.688;2023-03-23T18:19:15;15.9;61.9
78516;SHT31;67815;51.990;5.688;2023-03-23T18:24:50;15.9;63.1
78516;SHT31;67815;51.990;5.688;2023-03-23T18:27:20;15.9;62.6
78516;SHT31;67815;51.990;5.688;2023-03-23T18:30:13;15.9;63.5
78516;SHT31;67815;51.990;5.688;2023-03-23T18:35:48;15.8;63.1
78516;SHT31;67815;51.990;5.688;2023-03-23T18:38:22;15.8;63.5